Hauptseite
METAR-TAF:

METAR-TAF

Flughäfen :

Diepholz, Deutschland

Fliegerhorst Diepholz

Breite: 52-35N, Länge: 008-21E, Höhe: 39 m

METAR: fehlend

Zeit: 13:58 (12:58 UTC)

Prognose

Neuester Wetterbericht von vor 31 Stunden und 58 Minuten, um 05:00 UTC
Gültige Prognose vom 19 um 06 UTC bis 19 um 15 UTC
Wind 10 kt aus Südwest
Sichtweite 10 km oder mehr
Aufgelockert bewölkt in der Höhe von 2000 ft
Durchbrochene Bewölkung in der Höhe von 3000 ft
Zeitweise
vom 19 um 06 UTC bis 19 um 15 UTC
Wind 12 kt aus West/Südwest, Böen bis zu 22 kt
Sichtweite: 2000 m
Durchbrochene Bewölkung in der Höhe von 500 ft
Durchbrochene Bewölkung in der Höhe von 1500 ft, Kumulonimbus.
Schneeschauer, Regen

TAF: ETND 190500Z 1906/1915 22010KT 9999 NSW SCT020 BKN030 TEMPO 1906/1915 25012G22KT 2000 SHSNRA BKN005 BKN015CB CANCEL BY ETGL

Wetterbeobachtungen und Prognosen von mehr als 4000 Flughäfen (METAR und TAF Bericht).

Die verfügbaren Stationen werden durch gelbe und rote Markierungen auf der Karte dargestellt.

Führen Sie die Maus auf sie, um den Namen der Station zu sehen.

Darauf klicken, um die Beobachtung von Wetterbeobachtungen und Prognosen zu sehen.

Um die Karte zu ändern : klicken Sie auf den grünen Tasten mit einem schwarzen Kreuz Zum Vergrößern, auf den grünen Button mit einem Gedankenstrich zu verkleinern, oder auf die grünen Pfeile für benachbarte Karten.


METAR-TAF: